HKA weather

Blytheville Municipal Airport
Blytheville, Arkansas, United States

Public forecast

Using degrees Fahrenheit for public forecast. Weather courtesy of forecast.io.

Current aviation weather report (METAR) for Blytheville Municipal Airport

Retrieved 2020/06/01 18:53 UTC (38 minutes ago):

KHKA 011853Z AUTO 15008KT 10SM CLR 29/06 A3017 RMK AO2 SLP216 T02890056

Closest aviation forecast (TAF) to Blytheville Municipal Airport

Closest forecast is Jonesboro Municipal Airport, 40.2 nm (74.5 km) W. Retrieved 2020/06/01 18:33 UTC (58 minutes ago):

TAF KJBR 011730Z 0118/0218 10007KT P6SM SKC FM020100 VRB03KT P6SM SKC FM021500 21005KT P6SM SKC AMD NOT SKED